sensor_id;sensor_type;location;lat;lon;timestamp;temperature;humidity
55771;DHT22;41687;-33.234;-60.334;2023-06-14T00:01:04;9.40;99.40
55771;DHT22;41687;-33.234;-60.334;2023-06-14T00:03:33;9.40;99.80
55771;DHT22;41687;-33.234;-60.334;2023-06-14T00:06:01;9.40;99.90
55771;DHT22;41687;-33.234;-60.334;2023-06-14T00:08:28;9.30;99.90
55771;DHT22;41687;-33.234;-60.334;2023-06-14T00:10:56;9.30;99.90
55771;DHT22;41687;-33.234;-60.334;2023-06-14T00:13:23;9.30;99.90
55771;DHT22;41687;-33.234;-60.334;2023-06-14T00:15:51;9.30;99.90
55771;DHT22;41687;-33.234;-60.334;2023-06-14T00:18:22;9.30;99.90
55771;DHT22;41687;-33.234;-60.334;2023-06-14T00:20:53;9.20;99.90
55771;DHT22;41687;-33.234;-60.334;2023-06-14T00:23:21;9.10;99.90
55771;DHT22;41687;-33.234;-60.334;2023-06-14T00:25:49;9.10;99.90
55771;DHT22;41687;-33.234;-60.334;2023-06-14T00:28:16;9.10;99.90
55771;DHT22;41687;-33.234;-60.334;2023-06-14T00:30:44;9.10;99.90
55771;DHT22;41687;-33.234;-60.334;2023-06-14T00:33:13;9.00;99.90
55771;DHT22;41687;-33.234;-60.334;2023-06-14T00:35:43;9.00;99.90
55771;DHT22;41687;-33.234;-60.334;2023-06-14T00:38:11;9.00;99.90
55771;DHT22;41687;-33.234;-60.334;2023-06-14T00:40:41;9.10;99.90
55771;DHT22;41687;-33.234;-60.334;2023-06-14T00:43:09;9.20;99.90
55771;DHT22;41687;-33.234;-60.334;2023-06-14T00:45:36;9.20;99.90
55771;DHT22;41687;-33.234;-60.334;2023-06-14T00:48:05;9.20;99.90
55771;DHT22;41687;-33.234;-60.334;2023-06-14T00:50:36;9.20;99.90
55771;DHT22;41687;-33.234;-60.334;2023-06-14T00:53:04;9.20;99.90
55771;DHT22;41687;-33.234;-60.334;2023-06-14T00:55:33;9.10;99.90
55771;DHT22;41687;-33.234;-60.334;2023-06-14T00:58:00;9.10;99.90
55771;DHT22;41687;-33.234;-60.334;2023-06-14T01:00:28;9.10;99.90
55771;DHT22;41687;-33.234;-60.334;2023-06-14T01:02:56;9.10;99.90
55771;DHT22;41687;-33.234;-60.334;2023-06-14T01:05:24;9.00;99.90
55771;DHT22;41687;-33.234;-60.334;2023-06-14T01:07:58;9.00;99.90
55771;DHT22;41687;-33.234;-60.334;2023-06-14T01:15:44;9.00;99.90
55771;DHT22;41687;-33.234;-60.334;2023-06-14T01:18:13;8.90;99.90
55771;DHT22;41687;-33.234;-60.334;2023-06-14T01:20:51;8.90;99.90
55771;DHT22;41687;-33.234;-60.334;2023-06-14T01:23:20;8.90;99.90
55771;DHT22;41687;-33.234;-60.334;2023-06-14T01:25:49;8.90;99.90
55771;DHT22;41687;-33.234;-60.334;2023-06-14T01:28:20;8.90;99.90
55771;DHT22;41687;-33.234;-60.334;2023-06-14T01:30:53;8.90;99.90
55771;DHT22;41687;-33.234;-60.334;2023-06-14T01:33:24;8.90;99.90
55771;DHT22;41687;-33.234;-60.334;2023-06-14T01:35:53;8.90;99.90
55771;DHT22;41687;-33.234;-60.334;2023-06-14T01:38:24;8.90;99.90
55771;DHT22;41687;-33.234;-60.334;2023-06-14T01:40:55;8.90;99.90
55771;DHT22;41687;-33.234;-60.334;2023-06-14T01:43:26;8.90;99.90
55771;DHT22;41687;-33.234;-60.334;2023-06-14T01:45:56;8.80;99.90
55771;DHT22;41687;-33.234;-60.334;2023-06-14T01:48:25;8.80;99.90
55771;DHT22;41687;-33.234;-60.334;2023-06-14T01:50:53;8.80;99.90
55771;DHT22;41687;-33.234;-60.334;2023-06-14T01:53:20;8.70;99.90
55771;DHT22;41687;-33.234;-60.334;2023-06-14T01:55:48;8.70;99.90
55771;DHT22;41687;-33.234;-60.334;2023-06-14T01:58:16;8.60;99.90
55771;DHT22;41687;-33.234;-60.334;2023-06-14T02:00:43;8.60;99.90
55771;DHT22;41687;-33.234;-60.334;2023-06-14T02:03:12;8.60;99.90
55771;DHT22;41687;-33.234;-60.334;2023-06-14T02:05:40;8.50;99.90
55771;DHT22;41687;-33.234;-60.334;2023-06-14T02:08:08;8.50;99.90
55771;DHT22;41687;-33.234;-60.334;2023-06-14T02:10:37;8.50;99.90
55771;DHT22;41687;-33.234;-60.334;2023-06-14T02:13:05;8.50;99.90
55771;DHT22;41687;-33.234;-60.334;2023-06-14T02:15:33;8.50;99.90
55771;DHT22;41687;-33.234;-60.334;2023-06-14T02:18:02;8.50;99.90
55771;DHT22;41687;-33.234;-60.334;2023-06-14T02:20:33;8.50;99.90
55771;DHT22;41687;-33.234;-60.334;2023-06-14T02:23:01;8.50;99.90
55771;DHT22;41687;-33.234;-60.334;2023-06-14T02:25:31;8.50;99.90
55771;DHT22;41687;-33.234;-60.334;2023-06-14T02:27:59;8.60;99.90
55771;DHT22;41687;-33.234;-60.334;2023-06-14T02:30:26;8.50;99.90
55771;DHT22;41687;-33.234;-60.334;2023-06-14T02:32:56;8.60;99.90
55771;DHT22;41687;-33.234;-60.334;2023-06-14T02:35:24;8.60;99.90
55771;DHT22;41687;-33.234;-60.334;2023-06-14T02:37:53;8.70;99.90
55771;DHT22;41687;-33.234;-60.334;2023-06-14T02:40:23;8.70;99.90
55771;DHT22;41687;-33.234;-60.334;2023-06-14T02:42:50;8.70;99.90
55771;DHT22;41687;-33.234;-60.334;2023-06-14T02:45:18;8.70;99.90
55771;DHT22;41687;-33.234;-60.334;2023-06-14T02:47:47;8.70;99.90
55771;DHT22;41687;-33.234;-60.334;2023-06-14T02:50:15;8.70;99.90
55771;DHT22;41687;-33.234;-60.334;2023-06-14T02:52:43;8.70;99.90
55771;DHT22;41687;-33.234;-60.334;2023-06-14T02:55:12;8.70;99.90
55771;DHT22;41687;-33.234;-60.334;2023-06-14T02:57:40;8.70;99.90
55771;DHT22;41687;-33.234;-60.334;2023-06-14T03:00:10;8.70;99.90
55771;DHT22;41687;-33.234;-60.334;2023-06-14T03:02:41;8.70;99.90
55771;DHT22;41687;-33.234;-60.334;2023-06-14T03:05:09;8.70;99.90
55771;DHT22;41687;-33.234;-60.334;2023-06-14T03:07:37;8.70;99.90
55771;DHT22;41687;-33.234;-60.334;2023-06-14T03:10:09;8.70;99.90
55771;DHT22;41687;-33.234;-60.334;2023-06-14T03:12:38;8.70;99.90
55771;DHT22;41687;-33.234;-60.334;2023-06-14T03:15:08;8.70;99.90
55771;DHT22;41687;-33.234;-60.334;2023-06-14T03:17:41;8.60;99.90
55771;DHT22;41687;-33.234;-60.334;2023-06-14T03:20:13;8.60;99.90
55771;DHT22;41687;-33.234;-60.334;2023-06-14T03:22:41;8.50;99.90
55771;DHT22;41687;-33.234;-60.334;2023-06-14T03:25:09;8.40;99.90
55771;DHT22;41687;-33.234;-60.334;2023-06-14T03:27:39;8.40;99.90
55771;DHT22;41687;-33.234;-60.334;2023-06-14T03:30:07;8.40;99.90
55771;DHT22;41687;-33.234;-60.334;2023-06-14T03:32:35;8.30;99.90
55771;DHT22;41687;-33.234;-60.334;2023-06-14T03:35:04;8.30;99.90
55771;DHT22;41687;-33.234;-60.334;2023-06-14T03:37:33;8.30;99.90
55771;DHT22;41687;-33.234;-60.334;2023-06-14T03:40:01;8.20;99.90
55771;DHT22;41687;-33.234;-60.334;2023-06-14T03:42:34;8.10;99.90
55771;DHT22;41687;-33.234;-60.334;2023-06-14T03:45:02;8.00;99.90
55771;DHT22;41687;-33.234;-60.334;2023-06-14T03:47:29;7.90;99.90
55771;DHT22;41687;-33.234;-60.334;2023-06-14T03:49:58;7.90;99.90
55771;DHT22;41687;-33.234;-60.334;2023-06-14T03:52:25;7.80;99.90
55771;DHT22;41687;-33.234;-60.334;2023-06-14T03:54:53;7.80;99.90
55771;DHT22;41687;-33.234;-60.334;2023-06-14T03:57:20;7.80;99.90
55771;DHT22;41687;-33.234;-60.334;2023-06-14T03:59:50;7.70;99.90
55771;DHT22;41687;-33.234;-60.334;2023-06-14T04:02:17;7.70;99.90
55771;DHT22;41687;-33.234;-60.334;2023-06-14T04:04:45;7.60;99.90
55771;DHT22;41687;-33.234;-60.334;2023-06-14T04:07:13;7.60;99.90
55771;DHT22;41687;-33.234;-60.334;2023-06-14T04:09:41;7.60;99.90
55771;DHT22;41687;-33.234;-60.334;2023-06-14T04:12:09;7.60;99.90
55771;DHT22;41687;-33.234;-60.334;2023-06-14T04:14:39;7.60;99.90
55771;DHT22;41687;-33.234;-60.334;2023-06-14T04:17:08;7.50;99.90
55771;DHT22;41687;-33.234;-60.334;2023-06-14T04:19:38;7.60;99.90
55771;DHT22;41687;-33.234;-60.334;2023-06-14T04:22:05;7.60;99.90
55771;DHT22;41687;-33.234;-60.334;2023-06-14T04:24:35;7.50;99.90
55771;DHT22;41687;-33.234;-60.334;2023-06-14T04:27:04;7.50;99.90
55771;DHT22;41687;-33.234;-60.334;2023-06-14T04:29:32;7.50;99.90
55771;DHT22;41687;-33.234;-60.334;2023-06-14T04:32:06;7.40;99.90
55771;DHT22;41687;-33.234;-60.334;2023-06-14T04:34:38;7.40;99.90
55771;DHT22;41687;-33.234;-60.334;2023-06-14T04:37:08;7.40;99.90
55771;DHT22;41687;-33.234;-60.334;2023-06-14T04:39:39;7.40;99.90
55771;DHT22;41687;-33.234;-60.334;2023-06-14T04:42:07;7.50;99.90
55771;DHT22;41687;-33.234;-60.334;2023-06-14T04:44:34;7.40;99.90
55771;DHT22;41687;-33.234;-60.334;2023-06-14T04:47:04;7.40;99.90
55771;DHT22;41687;-33.234;-60.334;2023-06-14T04:49:34;7.40;99.90
55771;DHT22;41687;-33.234;-60.334;2023-06-14T04:52:01;7.30;99.90
55771;DHT22;41687;-33.234;-60.334;2023-06-14T04:54:35;7.30;99.90
55771;DHT22;41687;-33.234;-60.334;2023-06-14T04:57:05;7.30;99.90
55771;DHT22;41687;-33.234;-60.334;2023-06-14T04:59:33;7.30;99.90
55771;DHT22;41687;-33.234;-60.334;2023-06-14T05:02:02;7.30;99.90
55771;DHT22;41687;-33.234;-60.334;2023-06-14T05:04:29;7.30;99.90
55771;DHT22;41687;-33.234;-60.334;2023-06-14T05:06:59;7.30;99.90
55771;DHT22;41687;-33.234;-60.334;2023-06-14T05:09:28;7.30;99.90
55771;DHT22;41687;-33.234;-60.334;2023-06-14T05:11:55;7.30;99.90
55771;DHT22;41687;-33.234;-60.334;2023-06-14T05:14:23;7.40;99.90
55771;DHT22;41687;-33.234;-60.334;2023-06-14T05:16:52;7.40;99.90
55771;DHT22;41687;-33.234;-60.334;2023-06-14T05:19:20;7.40;99.90
55771;DHT22;41687;-33.234;-60.334;2023-06-14T05:21:48;7.40;99.90
55771;DHT22;41687;-33.234;-60.334;2023-06-14T05:24:17;7.40;99.90
55771;DHT22;41687;-33.234;-60.334;2023-06-14T05:26:45;7.40;99.90
55771;DHT22;41687;-33.234;-60.334;2023-06-14T05:29:12;7.40;99.90
55771;DHT22;41687;-33.234;-60.334;2023-06-14T05:31:40;7.50;99.90
55771;DHT22;41687;-33.234;-60.334;2023-06-14T05:34:08;7.40;99.90
55771;DHT22;41687;-33.234;-60.334;2023-06-14T05:36:35;7.50;99.90
55771;DHT22;41687;-33.234;-60.334;2023-06-14T05:39:03;7.40;99.90
55771;DHT22;41687;-33.234;-60.334;2023-06-14T05:41:32;7.50;99.90
55771;DHT22;41687;-33.234;-60.334;2023-06-14T05:44:00;7.40;99.90
55771;DHT22;41687;-33.234;-60.334;2023-06-14T05:46:28;7.50;99.90
55771;DHT22;41687;-33.234;-60.334;2023-06-14T05:48:56;7.40;99.90
55771;DHT22;41687;-33.234;-60.334;2023-06-14T05:51:23;7.40;99.90
55771;DHT22;41687;-33.234;-60.334;2023-06-14T05:53:54;7.50;99.90
55771;DHT22;41687;-33.234;-60.334;2023-06-14T05:56:22;7.40;99.90
55771;DHT22;41687;-33.234;-60.334;2023-06-14T05:58:50;7.50;99.90
55771;DHT22;41687;-33.234;-60.334;2023-06-14T06:01:17;7.50;99.90
55771;DHT22;41687;-33.234;-60.334;2023-06-14T06:03:45;7.50;99.90
55771;DHT22;41687;-33.234;-60.334;2023-06-14T06:06:13;7.40;99.90
55771;DHT22;41687;-33.234;-60.334;2023-06-14T06:08:41;7.40;99.90
55771;DHT22;41687;-33.234;-60.334;2023-06-14T06:11:09;7.40;99.90
55771;DHT22;41687;-33.234;-60.334;2023-06-14T06:13:38;7.30;99.90
55771;DHT22;41687;-33.234;-60.334;2023-06-14T06:16:07;7.30;99.90
55771;DHT22;41687;-33.234;-60.334;2023-06-14T06:18:34;7.30;99.90
55771;DHT22;41687;-33.234;-60.334;2023-06-14T06:21:03;7.20;99.90
55771;DHT22;41687;-33.234;-60.334;2023-06-14T06:23:32;7.20;99.90
55771;DHT22;41687;-33.234;-60.334;2023-06-14T06:25:59;7.10;99.90
55771;DHT22;41687;-33.234;-60.334;2023-06-14T06:28:26;7.10;99.90
55771;DHT22;41687;-33.234;-60.334;2023-06-14T06:30:54;7.10;99.90
55771;DHT22;41687;-33.234;-60.334;2023-06-14T06:33:22;7.10;99.90
55771;DHT22;41687;-33.234;-60.334;2023-06-14T06:35:50;7.10;99.90
55771;DHT22;41687;-33.234;-60.334;2023-06-14T06:38:17;7.20;99.90
55771;DHT22;41687;-33.234;-60.334;2023-06-14T06:40:45;7.20;99.90
55771;DHT22;41687;-33.234;-60.334;2023-06-14T06:43:13;7.10;99.90
55771;DHT22;41687;-33.234;-60.334;2023-06-14T06:45:46;7.10;99.90
55771;DHT22;41687;-33.234;-60.334;2023-06-14T06:48:14;7.10;99.90
55771;DHT22;41687;-33.234;-60.334;2023-06-14T06:50:42;7.10;99.90
55771;DHT22;41687;-33.234;-60.334;2023-06-14T06:53:10;7.10;99.90
55771;DHT22;41687;-33.234;-60.334;2023-06-14T06:55:37;7.10;99.90
55771;DHT22;41687;-33.234;-60.334;2023-06-14T06:58:05;7.00;99.90
55771;DHT22;41687;-33.234;-60.334;2023-06-14T07:00:33;7.00;99.90
55771;DHT22;41687;-33.234;-60.334;2023-06-14T07:03:00;7.00;99.90
55771;DHT22;41687;-33.234;-60.334;2023-06-14T07:05:28;7.00;99.90
55771;DHT22;41687;-33.234;-60.334;2023-06-14T07:07:56;7.00;99.90
55771;DHT22;41687;-33.234;-60.334;2023-06-14T07:10:23;6.90;99.90
55771;DHT22;41687;-33.234;-60.334;2023-06-14T07:12:51;6.90;99.90
55771;DHT22;41687;-33.234;-60.334;2023-06-14T07:15:18;6.80;99.90
55771;DHT22;41687;-33.234;-60.334;2023-06-14T07:17:47;6.80;99.90
55771;DHT22;41687;-33.234;-60.334;2023-06-14T07:20:15;6.80;99.90
55771;DHT22;41687;-33.234;-60.334;2023-06-14T07:22:43;6.80;99.90
55771;DHT22;41687;-33.234;-60.334;2023-06-14T07:25:11;6.80;99.90
55771;DHT22;41687;-33.234;-60.334;2023-06-14T07:27:45;6.80;99.90
55771;DHT22;41687;-33.234;-60.334;2023-06-14T07:30:13;6.90;99.90
55771;DHT22;41687;-33.234;-60.334;2023-06-14T07:32:40;7.00;99.90
55771;DHT22;41687;-33.234;-60.334;2023-06-14T07:35:08;7.00;99.90
55771;DHT22;41687;-33.234;-60.334;2023-06-14T07:37:36;7.10;99.90
55771;DHT22;41687;-33.234;-60.334;2023-06-14T07:40:03;7.20;99.90
55771;DHT22;41687;-33.234;-60.334;2023-06-14T07:42:34;7.10;99.90
55771;DHT22;41687;-33.234;-60.334;2023-06-14T07:45:04;7.20;99.90
55771;DHT22;41687;-33.234;-60.334;2023-06-14T07:47:32;7.20;99.90
55771;DHT22;41687;-33.234;-60.334;2023-06-14T07:49:59;7.30;99.90
55771;DHT22;41687;-33.234;-60.334;2023-06-14T07:52:27;7.30;99.90
55771;DHT22;41687;-33.234;-60.334;2023-06-14T07:54:55;7.30;99.90
55771;DHT22;41687;-33.234;-60.334;2023-06-14T07:57:22;7.30;99.90
55771;DHT22;41687;-33.234;-60.334;2023-06-14T07:59:50;7.30;99.90
55771;DHT22;41687;-33.234;-60.334;2023-06-14T08:02:18;7.20;99.90
55771;DHT22;41687;-33.234;-60.334;2023-06-14T08:04:45;7.10;99.90
55771;DHT22;41687;-33.234;-60.334;2023-06-14T08:07:15;7.10;99.90
55771;DHT22;41687;-33.234;-60.334;2023-06-14T08:09:42;7.00;99.90
55771;DHT22;41687;-33.234;-60.334;2023-06-14T08:12:10;7.10;99.90
55771;DHT22;41687;-33.234;-60.334;2023-06-14T08:14:38;7.20;99.90
55771;DHT22;41687;-33.234;-60.334;2023-06-14T08:17:06;7.20;99.90
55771;DHT22;41687;-33.234;-60.334;2023-06-14T08:19:34;7.20;99.90
55771;DHT22;41687;-33.234;-60.334;2023-06-14T08:22:04;7.20;99.90
55771;DHT22;41687;-33.234;-60.334;2023-06-14T08:24:31;7.20;99.90
55771;DHT22;41687;-33.234;-60.334;2023-06-14T08:26:59;7.20;99.90
55771;DHT22;41687;-33.234;-60.334;2023-06-14T08:29:27;7.20;99.90
55771;DHT22;41687;-33.234;-60.334;2023-06-14T08:31:58;7.20;99.90
55771;DHT22;41687;-33.234;-60.334;2023-06-14T08:34:25;7.20;99.90
55771;DHT22;41687;-33.234;-60.334;2023-06-14T08:36:53;7.10;99.90
55771;DHT22;41687;-33.234;-60.334;2023-06-14T08:39:21;7.10;99.90
55771;DHT22;41687;-33.234;-60.334;2023-06-14T08:41:49;7.10;99.90
55771;DHT22;41687;-33.234;-60.334;2023-06-14T08:44:17;7.00;99.90
55771;DHT22;41687;-33.234;-60.334;2023-06-14T08:46:48;6.90;99.90
55771;DHT22;41687;-33.234;-60.334;2023-06-14T08:49:17;6.90;99.90
55771;DHT22;41687;-33.234;-60.334;2023-06-14T08:51:44;6.90;99.90
55771;DHT22;41687;-33.234;-60.334;2023-06-14T08:54:15;6.90;99.90
55771;DHT22;41687;-33.234;-60.334;2023-06-14T08:56:42;7.00;99.90
55771;DHT22;41687;-33.234;-60.334;2023-06-14T08:59:11;7.00;99.90
55771;DHT22;41687;-33.234;-60.334;2023-06-14T09:01:40;7.00;99.90
55771;DHT22;41687;-33.234;-60.334;2023-06-14T09:04:08;6.90;99.90
55771;DHT22;41687;-33.234;-60.334;2023-06-14T09:06:35;6.80;99.90
55771;DHT22;41687;-33.234;-60.334;2023-06-14T09:09:03;6.80;99.90
55771;DHT22;41687;-33.234;-60.334;2023-06-14T09:11:31;6.80;99.90
55771;DHT22;41687;-33.234;-60.334;2023-06-14T09:13:58;6.80;99.90
55771;DHT22;41687;-33.234;-60.334;2023-06-14T09:16:27;6.90;99.90
55771;DHT22;41687;-33.234;-60.334;2023-06-14T09:18:55;6.90;99.90
55771;DHT22;41687;-33.234;-60.334;2023-06-14T09:21:23;6.90;99.90
55771;DHT22;41687;-33.234;-60.334;2023-06-14T09:23:51;7.00;99.90
55771;DHT22;41687;-33.234;-60.334;2023-06-14T09:26:20;6.90;99.90
55771;DHT22;41687;-33.234;-60.334;2023-06-14T09:28:50;6.90;99.90
55771;DHT22;41687;-33.234;-60.334;2023-06-14T09:31:19;6.90;99.90
55771;DHT22;41687;-33.234;-60.334;2023-06-14T09:33:51;6.90;99.90
55771;DHT22;41687;-33.234;-60.334;2023-06-14T09:36:23;6.80;99.90
55771;DHT22;41687;-33.234;-60.334;2023-06-14T09:38:59;6.80;99.90
55771;DHT22;41687;-33.234;-60.334;2023-06-14T09:41:40;6.80;99.90
55771;DHT22;41687;-33.234;-60.334;2023-06-14T09:44:11;6.80;99.90
55771;DHT22;41687;-33.234;-60.334;2023-06-14T09:46:41;6.80;99.90
55771;DHT22;41687;-33.234;-60.334;2023-06-14T09:49:09;6.80;99.90
55771;DHT22;41687;-33.234;-60.334;2023-06-14T09:51:43;6.80;99.90
55771;DHT22;41687;-33.234;-60.334;2023-06-14T09:54:15;6.70;99.90
55771;DHT22;41687;-33.234;-60.334;2023-06-14T09:56:45;6.70;99.90
55771;DHT22;41687;-33.234;-60.334;2023-06-14T09:59:19;6.70;99.90
55771;DHT22;41687;-33.234;-60.334;2023-06-14T10:01:48;6.80;99.90
55771;DHT22;41687;-33.234;-60.334;2023-06-14T10:04:19;6.70;99.90
55771;DHT22;41687;-33.234;-60.334;2023-06-14T10:06:50;6.70;99.90
55771;DHT22;41687;-33.234;-60.334;2023-06-14T10:09:19;6.80;99.90
55771;DHT22;41687;-33.234;-60.334;2023-06-14T10:11:48;6.80;99.90
55771;DHT22;41687;-33.234;-60.334;2023-06-14T10:14:17;6.80;99.90
55771;DHT22;41687;-33.234;-60.334;2023-06-14T10:19:55;6.90;99.90
55771;DHT22;41687;-33.234;-60.334;2023-06-14T10:22:35;6.90;99.90
55771;DHT22;41687;-33.234;-60.334;2023-06-14T10:25:07;6.80;99.90
55771;DHT22;41687;-33.234;-60.334;2023-06-14T10:27:45;6.90;99.90
55771;DHT22;41687;-33.234;-60.334;2023-06-14T10:30:15;6.80;99.90
55771;DHT22;41687;-33.234;-60.334;2023-06-14T10:33:08;6.80;99.90
55771;DHT22;41687;-33.234;-60.334;2023-06-14T10:35:37;6.80;99.90
55771;DHT22;41687;-33.234;-60.334;2023-06-14T10:38:12;6.70;99.90
55771;DHT22;41687;-33.234;-60.334;2023-06-14T10:40:40;6.70;99.90
55771;DHT22;41687;-33.234;-60.334;2023-06-14T10:43:23;6.70;99.90
55771;DHT22;41687;-33.234;-60.334;2023-06-14T10:46:17;6.70;99.90
55771;DHT22;41687;-33.234;-60.334;2023-06-14T10:48:48;6.80;99.90
55771;DHT22;41687;-33.234;-60.334;2023-06-14T10:51:20;6.70;99.90
55771;DHT22;41687;-33.234;-60.334;2023-06-14T10:53:51;6.70;99.90
55771;DHT22;41687;-33.234;-60.334;2023-06-14T10:56:31;6.70;99.90
55771;DHT22;41687;-33.234;-60.334;2023-06-14T10:59:00;6.70;99.90
55771;DHT22;41687;-33.234;-60.334;2023-06-14T11:01:38;6.70;99.90
55771;DHT22;41687;-33.234;-60.334;2023-06-14T11:04:10;6.70;99.90
55771;DHT22;41687;-33.234;-60.334;2023-06-14T11:06:48;6.70;99.90
55771;DHT22;41687;-33.234;-60.334;2023-06-14T11:09:47;6.60;99.90
55771;DHT22;41687;-33.234;-60.334;2023-06-14T11:12:21;6.60;99.90
55771;DHT22;41687;-33.234;-60.334;2023-06-14T11:14:49;6.70;99.90
55771;DHT22;41687;-33.234;-60.334;2023-06-14T11:17:18;6.70;99.90
55771;DHT22;41687;-33.234;-60.334;2023-06-14T11:19:46;6.70;99.90
55771;DHT22;41687;-33.234;-60.334;2023-06-14T11:22:14;6.80;99.90
55771;DHT22;41687;-33.234;-60.334;2023-06-14T11:24:43;6.80;99.90
55771;DHT22;41687;-33.234;-60.334;2023-06-14T11:27:12;6.90;99.90
55771;DHT22;41687;-33.234;-60.334;2023-06-14T11:29:48;6.90;99.90
55771;DHT22;41687;-33.234;-60.334;2023-06-14T11:32:17;7.00;99.90
55771;DHT22;41687;-33.234;-60.334;2023-06-14T11:34:46;7.00;99.90
55771;DHT22;41687;-33.234;-60.334;2023-06-14T11:37:14;7.10;99.90
55771;DHT22;41687;-33.234;-60.334;2023-06-14T11:39:44;7.70;99.90
55771;DHT22;41687;-33.234;-60.334;2023-06-14T11:42:18;9.60;99.90
55771;DHT22;41687;-33.234;-60.334;2023-06-14T11:44:46;11.60;99.90
55771;DHT22;41687;-33.234;-60.334;2023-06-14T11:47:14;13.30;96.20
55771;DHT22;41687;-33.234;-60.334;2023-06-14T11:49:42;14.80;89.80
55771;DHT22;41687;-33.234;-60.334;2023-06-14T11:52:10;16.00;78.00
55771;DHT22;41687;-33.234;-60.334;2023-06-14T11:54:38;17.20;69.30
55771;DHT22;41687;-33.234;-60.334;2023-06-14T11:57:08;17.90;63.80
55771;DHT22;41687;-33.234;-60.334;2023-06-14T11:59:39;18.60;59.50
55771;DHT22;41687;-33.234;-60.334;2023-06-14T12:02:08;19.30;55.20
55771;DHT22;41687;-33.234;-60.334;2023-06-14T12:04:35;19.60;54.20
55771;DHT22;41687;-33.234;-60.334;2023-06-14T12:07:14;19.80;53.00
55771;DHT22;41687;-33.234;-60.334;2023-06-14T12:12:27;21.30;46.20
55771;DHT22;41687;-33.234;-60.334;2023-06-14T12:14:56;21.50;47.00
55771;DHT22;41687;-33.234;-60.334;2023-06-14T12:17:24;21.80;45.80
55771;DHT22;41687;-33.234;-60.334;2023-06-14T12:19:52;22.00;46.60
55771;DHT22;41687;-33.234;-60.334;2023-06-14T12:22:19;22.30;44.10
55771;DHT22;41687;-33.234;-60.334;2023-06-14T12:24:46;22.60;44.30
55771;DHT22;41687;-33.234;-60.334;2023-06-14T12:27:15;22.60;43.00
55771;DHT22;41687;-33.234;-60.334;2023-06-14T12:29:45;22.60;42.70
55771;DHT22;41687;-33.234;-60.334;2023-06-14T12:32:13;22.50;41.90
55771;DHT22;41687;-33.234;-60.334;2023-06-14T12:34:40;22.40;41.80
55771;DHT22;41687;-33.234;-60.334;2023-06-14T12:37:08;22.10;42.10
55771;DHT22;41687;-33.234;-60.334;2023-06-14T12:39:37;21.10;44.10
55771;DHT22;41687;-33.234;-60.334;2023-06-14T12:42:06;19.70;47.10
55771;DHT22;41687;-33.234;-60.334;2023-06-14T12:44:34;18.50;51.60
55771;DHT22;41687;-33.234;-60.334;2023-06-14T12:47:07;17.50;53.10
55771;DHT22;41687;-33.234;-60.334;2023-06-14T12:49:35;16.60;58.40
55771;DHT22;41687;-33.234;-60.334;2023-06-14T12:52:03;16.00;65.10
55771;DHT22;41687;-33.234;-60.334;2023-06-14T12:54:29;15.50;70.30
55771;DHT22;41687;-33.234;-60.334;2023-06-14T12:56:57;15.10;75.30
55771;DHT22;41687;-33.234;-60.334;2023-06-14T12:59:24;14.70;77.30
55771;DHT22;41687;-33.234;-60.334;2023-06-14T13:01:52;14.10;77.00
55771;DHT22;41687;-33.234;-60.334;2023-06-14T13:04:20;13.90;89.30
55771;DHT22;41687;-33.234;-60.334;2023-06-14T13:06:48;13.70;91.20
55771;DHT22;41687;-33.234;-60.334;2023-06-14T13:09:15;13.60;90.40
55771;DHT22;41687;-33.234;-60.334;2023-06-14T13:11:43;13.40;89.20
55771;DHT22;41687;-33.234;-60.334;2023-06-14T13:14:12;13.00;86.60
55771;DHT22;41687;-33.234;-60.334;2023-06-14T13:16:40;13.00;90.30
55771;DHT22;41687;-33.234;-60.334;2023-06-14T13:19:08;12.80;90.90
55771;DHT22;41687;-33.234;-60.334;2023-06-14T13:21:36;12.90;91.80
55771;DHT22;41687;-33.234;-60.334;2023-06-14T13:24:04;12.90;92.80
55771;DHT22;41687;-33.234;-60.334;2023-06-14T13:26:33;12.90;92.70
55771;DHT22;41687;-33.234;-60.334;2023-06-14T13:29:02;12.60;92.30
55771;DHT22;41687;-33.234;-60.334;2023-06-14T13:31:30;12.60;92.60
55771;DHT22;41687;-33.234;-60.334;2023-06-14T13:33:58;12.40;90.70
55771;DHT22;41687;-33.234;-60.334;2023-06-14T13:36:25;12.10;92.50
55771;DHT22;41687;-33.234;-60.334;2023-06-14T13:38:53;12.20;93.60
55771;DHT22;41687;-33.234;-60.334;2023-06-14T13:41:21;12.20;93.20
55771;DHT22;41687;-33.234;-60.334;2023-06-14T13:43:49;12.20;94.20
55771;DHT22;41687;-33.234;-60.334;2023-06-14T13:46:17;11.90;92.40
55771;DHT22;41687;-33.234;-60.334;2023-06-14T13:48:44;11.70;94.30
55771;DHT22;41687;-33.234;-60.334;2023-06-14T13:51:14;11.90;95.70
55771;DHT22;41687;-33.234;-60.334;2023-06-14T13:53:41;11.80;93.30
55771;DHT22;41687;-33.234;-60.334;2023-06-14T13:56:09;11.60;93.30
55771;DHT22;41687;-33.234;-60.334;2023-06-14T13:58:38;11.50;93.20
55771;DHT22;41687;-33.234;-60.334;2023-06-14T14:01:05;11.50;94.20
55771;DHT22;41687;-33.234;-60.334;2023-06-14T14:03:34;11.70;94.10
55771;DHT22;41687;-33.234;-60.334;2023-06-14T14:06:05;11.60;93.70
55771;DHT22;41687;-33.234;-60.334;2023-06-14T14:08:34;11.80;94.20
55771;DHT22;41687;-33.234;-60.334;2023-06-14T14:11:02;11.70;94.60
55771;DHT22;41687;-33.234;-60.334;2023-06-14T14:13:30;11.70;95.20
55771;DHT22;41687;-33.234;-60.334;2023-06-14T14:15:57;11.90;94.50
55771;DHT22;41687;-33.234;-60.334;2023-06-14T14:18:26;11.50;95.10
55771;DHT22;41687;-33.234;-60.334;2023-06-14T14:20:54;11.70;96.40
55771;DHT22;41687;-33.234;-60.334;2023-06-14T14:23:22;11.70;95.20
55771;DHT22;41687;-33.234;-60.334;2023-06-14T14:25:50;11.80;95.60
55771;DHT22;41687;-33.234;-60.334;2023-06-14T14:28:17;11.90;96.30
55771;DHT22;41687;-33.234;-60.334;2023-06-14T14:30:47;11.90;94.00
55771;DHT22;41687;-33.234;-60.334;2023-06-14T14:33:16;11.80;94.50
55771;DHT22;41687;-33.234;-60.334;2023-06-14T14:35:44;11.50;94.90
55771;DHT22;41687;-33.234;-60.334;2023-06-14T14:38:15;11.40;93.60
55771;DHT22;41687;-33.234;-60.334;2023-06-14T14:40:43;11.40;93.60
55771;DHT22;41687;-33.234;-60.334;2023-06-14T14:43:12;11.30;91.70
55771;DHT22;41687;-33.234;-60.334;2023-06-14T14:45:39;11.30;93.10
55771;DHT22;41687;-33.234;-60.334;2023-06-14T14:48:07;11.30;92.90
55771;DHT22;41687;-33.234;-60.334;2023-06-14T14:50:34;11.30;90.70
55771;DHT22;41687;-33.234;-60.334;2023-06-14T14:53:02;11.30;90.50
55771;DHT22;41687;-33.234;-60.334;2023-06-14T14:55:29;11.30;91.10
55771;DHT22;41687;-33.234;-60.334;2023-06-14T14:57:57;11.40;90.10
55771;DHT22;41687;-33.234;-60.334;2023-06-14T15:00:25;11.30;87.50
55771;DHT22;41687;-33.234;-60.334;2023-06-14T15:02:52;11.30;90.00
55771;DHT22;41687;-33.234;-60.334;2023-06-14T15:05:20;11.30;85.00
55771;DHT22;41687;-33.234;-60.334;2023-06-14T15:07:47;11.20;84.10
55771;DHT22;41687;-33.234;-60.334;2023-06-14T15:10:15;11.20;79.30
55771;DHT22;41687;-33.234;-60.334;2023-06-14T15:12:42;11.10;74.70
55771;DHT22;41687;-33.234;-60.334;2023-06-14T15:15:10;11.00;78.80
55771;DHT22;41687;-33.234;-60.334;2023-06-14T15:17:38;11.10;76.80
55771;DHT22;41687;-33.234;-60.334;2023-06-14T15:20:06;10.90;75.50